Great Neck Estates, New York
Current Conditions -  °F | °C
As of 7:51 PM on Monday 22 Dec 2014 (Local Time) from KLGA Reporting Station
Overcast Overcast  
Wind Chill: 39°   Ceiling: 1400
Heat Index: 45°   Visibility: 10mi
Dew Point: 40°   Wind: 12mph
Humidity: 82%   Direction: 60°ENE
Pressure: 30.23"   Gusts: NA
Location:  40.786°N, 73.7291°W
Report Text: KLGA 230051Z 06010KT 10SM OVC014 07/04 A3023 RMK AO2 SLP235 T00720044
Loading
Personal Weather Stations






























Interactive Weather Map New forecast layout! Learn more

10-Day Weather Forecast

Advertisements
Track Severe Weather on mobile